Maxwell, IA (50161)

10:38 PM CST on February 06, 2016 (GMT -0600)
IEM | | Change Station
CLOSE
Current Station
Personal Weather Station
Location: Nevada, IA
Elevation: 1026 ft
Nearby Weather Stations
Active Advisory: Blizzard Watch

Elev 1026 ft 42.02 °N, 93.44 °W | Updated 19 minutes ago

Overcast
Overcast
34 °F
Feels Like 34 °F
N
0
Wind Variable Wind from North
Gusts 0.0 mph

Today
High -- | Low -- °F
--% Chance of Precip.
Yesterday
High -- | Low -- °F
Precip. -- in
Pressure 29.96 in
Visibility 10.0 miles
Clouds Clear
Windchill 34 °F
Dew Point 30 °F
Humidity 86%
Rainfall in
Snow Depth Not available.
7:21 AM 5:34 PM
Waning Crescent, 3% visible
METAR KAMW 070353Z AUTO 19010KT 10SM CLR 02/M02 A2994 RMK AO2 SLP146 T00171017
Pressure 29.96 in
Visibility 10.0 miles
Clouds Clear
Windchill 34 °F
Dew Point 30 °F
Humidity 86%
Rainfall in
Snow Depth Not available.
7:21 AM 5:34 PM
Waning Crescent, 3% visible
METAR KAMW 070353Z AUTO 19010KT 10SM CLR 02/M02 A2994 RMK AO2 SLP146 T00171017

10-Day Weather Forecast

Almanac

Astronomy

Feb. 06, 2016 Rise Set
Actual Time
Civil Twilight
Nautical Twilight
Astronomical Twilight
Moon
Length of Visible Light
Length of Day
Tomorrow will be .
, % of the Moon is Illuminated

Today's Extremes

State Highs State Lows

Community

WunderPhotos

Upload Photos

1,891,157 photos uploaded!

WunderBlog® & News

Nearby

Air Quality

  Air Quality AQ Index Pollutant
Not available.

Snow Depth

Station Depth Elevation

Earthquake Activity

City Distance Mag. Time & Date
Minimum magnitude displayed is 2.5.

Coastal Water Temperatures

Place Temperature

Stations

Nearby Weather Stations

Station Location Temp. Windchill Dew Point Humidity Wind Precip. Elev Updated Type
                   

Watches & Warnings

Blizzard Watch
Issued: 9:56 PM CST Feb. 6, 2016 – National Weather Service

... Blizzard watch remains in effect from Sunday afternoon through
Monday afternoon...

* timing... late Sunday afternoon through Monday afternoon.

* Storm total snow accumulations... up to 2 inches with locally
higher amounts.

* Winds/visibility... northwest wind 30 to 40 mph with gusts to
near 50 mph. Visibilities may drop below one quarter mile for an
extended period with near whiteout conditions possible at times.

* Impacts... considerable blowing and drifting snow can create
treacherous travel conditions and even lead to nearly
impossible travel in some areas.

Precautionary/preparedness actions...
a blizzard watch means there is a potential for falling and/or
blowing snow with strong winds and extremely poor visibilities.
This can lead to whiteout conditions and make travel very
dangerous.



Fab